PDT,Max TemperatureF,Mean TemperatureF,Min TemperatureF,Max Dew PointF,MeanDew PointF,Min DewpointF,Max Humidity, Mean Humidity, Min Humidity, Max Sea Level PressureIn, Mean Sea Level PressureIn, Min Sea Level PressureIn, Max VisibilityMiles, Mean VisibilityMiles, Min VisibilityMiles, Max Wind SpeedMPH, Mean Wind SpeedMPH, Max Gust SpeedMPH,PrecipitationIn, CloudCover, Events, WindDirDegrees
2013-9-1,80,71,62,62,58,55,84,65,45,29.98,29.95,29.90,10,10,10,21,7,23,0.00,1,,354
2013-9-2,76,71,65,63,61,60,87,76,64,29.99,29.95,29.91,10,10,10,20,7,22,T,5,,337
2013-9-3,79,70,61,58,56,51,84,62,39,30.03,29.99,29.96,10,10,10,22,6,25,0.00,0,,341
2013-9-4,79,70,60,59,56,54,84,65,45,30.06,30.02,29.97,10,10,10,24,6,26,0.00,0,,324
2013-9-5,80,70,59,57,54,51,84,62,39,30.05,30.02,29.99,10,10,10,23,7,28,0.00,0,,335
2013-9-6,88,73,57,57,54,51,84,57,29,30.02,29.93,29.84,10,10,10,14,4,17,0.00,0,,350
2013-9-7,94,78,62,60,53,45,81,50,19,29.89,29.86,29.81,10,10,10,16,4,20,0.00,0,,337
2013-9-8,83,73,62,60,58,54,84,62,39,29.90,29.85,29.78,10,10,10,14,4,16,0.00,1,,326
2013-9-9,83,73,62,62,59,54,87,63,39,29.84,29.79,29.73,10,10,10,15,4,20,0.00,0,,334
2013-9-10,78,70,62,63,59,54,90,70,50,29.92,29.82,29.76,10,10,9,17,7,21,0.00,3,,18
2013-9-11,75,67,59,58,55,53,78,64,50,30.01,29.97,29.92,10,10,9,18,6,22,0.00,0,,6
2013-9-12,73,67,61,60,57,55,84,73,61,30.00,29.97,29.91,10,10,10,18,6,22,0.00,4,,353
2013-9-13,71,66,60,59,57,55,84,73,61,29.93,29.89,29.82,10,10,10,21,8,23,0.00,4,,356
2013-9-14,71,65,59,57,55,53,84,75,66,29.87,29.83,29.79,10,10,10,18,6,22,0.00,4,,353
2013-9-15,77,68,58,61,56,52,87,70,53,29.90,29.86,29.83,10,10,10,20,7,23,0.00,4,,338
2013-9-16,80,71,61,59,57,52,90,66,42,29.92,29.88,29.83,10,10,10,22,6,25,0.00,3,,329
2013-9-17,75,67,58,54,52,46,80,59,38,29.92,29.90,29.88,10,10,10,20,6,31,0.00,1,,319
2013-9-18,82,69,56,56,52,48,83,58,33,29.93,29.89,29.84,10,10,10,21,6,23,0.00,0,,346
2013-9-19,83,69,54,57,51,45,83,57,30,29.88,29.83,29.77,10,10,10,16,5,18,0.00,0,,349
2013-9-20,77,66,55,59,55,50,86,70,54,29.90,29.86,29.81,10,10,10,16,5,20,0.00,3,,354
2013-9-21,70,64,58,61,56,53,90,74,57,29.94,29.87,29.83,10,8,1,15,4,23,0.49,5,Rain,259
2013-9-22,73,63,53,55,52,48,93,70,47,30.04,29.99,29.93,10,10,10,21,5,25,0.01,1,,330
2013-9-23,81,68,55,60,53,50,83,61,39,30.04,30.00,29.94,10,10,10,17,5,22,0.00,0,,337
2013-9-24,76,68,59,57,51,45,84,59,33,30.03,29.98,29.96,10,10,10,18,7,28,0.00,0,,303
2013-9-25,70,63,56,49,45,41,72,55,37,29.97,29.92,29.86,10,10,10,20,9,26,0.00,0,,293
2013-9-26,76,65,53,45,41,33,66,44,21,30.01,29.93,29.86,10,10,10,15,5,21,0.00,0,,321
2013-9-27,79,65,51,49,40,34,71,45,19,30.12,30.07,30.01,10,10,10,18,3,21,0.00,0,,334
2013-9-28,81,67,52,55,44,36,78,50,21,30.12,30.07,30.01,10,10,10,20,5,24,0.00,0,,334
2013-9-29,76,66,55,61,55,51,87,69,50,30.13,30.10,30.07,10,10,10,16,6,20,0.00,0,,340
2013-9-30,76,67,58,62,56,41,93,71,48,30.10,30.05,29.99,10,10,10,18,7,23,0.00,2,,348